Time;durP1;ratioP1;P1;durP2;ratioP2;P2;SDS_P1;SDS_P2;PMS_P1;PMS_P2;Temp;Humidity;BMP_temperature;BMP_pressure;BME280_temperature;BME280_humidity;BME280_pressure;Samples;Min_cycle;Max_cycle;Signal;HPM_P1;HPM_P2
2021/05/01 00:01:26;;;;;;;9.65;6.00;;;409.70;2355.20;;;;;;5093700;28;21125;-60
2021/05/01 00:03:51;;;;;;;11.20;5.68;;;409.70;2355.20;;;;;;5093368;28;20130;-60
2021/05/01 00:06:17;;;;;;;10.55;6.30;;;409.60;2355.20;;;;;;5092966;28;20040;-59
2021/05/01 00:08:43;;;;;;;9.80;6.38;;;384.90;2329.60;;;;;;5093289;28;20024;-60
2021/05/01 00:11:09;;;;;;;8.00;5.18;;;384.90;2329.60;;;;;;5093121;28;20027;-60
2021/05/01 00:13:35;;;;;;;8.30;5.40;;;409.60;2355.20;;;;;;5093262;28;20060;-62
2021/05/01 00:16:02;;;;;;;9.90;5.20;;;409.70;2355.20;;;;;;5093079;28;20020;-60
2021/05/01 00:18:27;;;;;;;9.45;4.70;;;409.80;2355.20;;;;;;5092845;28;20035;-60
2021/05/01 00:20:53;;;;;;;7.20;4.93;;;409.80;2329.60;;;;;;5093178;28;20382;-60
2021/05/01 00:23:19;;;;;;;7.47;5.43;;;409.90;2329.60;;;;;;5092800;28;20025;-60
2021/05/01 00:25:45;;;;;;;11.45;5.50;;;409.60;2355.20;;;;;;5093013;28;20095;-60
2021/05/01 00:28:11;;;;;;;9.07;5.53;;;409.60;2355.20;;;;;;5093010;28;20533;-60
2021/05/01 00:30:38;;;;;;;17.65;5.78;;;384.90;2329.60;;;;;;5092593;28;20020;-60
2021/05/01 00:33:04;;;;;;;10.90;5.10;;;384.80;2329.60;;;;;;5092953;28;20027;-59
2021/05/01 00:35:30;;;;;;;10.30;5.07;;;409.60;2355.20;;;;;;5092718;28;20036;-59
2021/05/01 00:37:56;;;;;;;19.77;5.40;;;409.60;2355.20;;;;;;5092844;28;20410;-60
2021/05/01 00:40:22;;;;;;;9.27;4.80;;;409.60;2329.60;;;;;;5092635;28;20020;-59
2021/05/01 00:42:47;;;;;;;12.50;4.97;;;409.60;2329.60;;;;;;5092526;28;20097;-60
2021/05/01 00:45:13;;;;;;;9.63;5.30;;;409.70;2252.80;;;;;;5092866;28;20031;-60
2021/05/01 00:47:39;;;;;;;8.02;4.47;;;410.00;2227.20;;;;;;5092489;28;20445;-60
2021/05/01 00:50:06;;;;;;;13.43;5.38;;;409.90;2278.40;;;;;;5092609;28;20059;-59
2021/05/01 00:52:33;;;;;;;8.27;5.28;;;409.80;2304.00;;;;;;5092597;28;20359;-61
2021/05/01 00:54:59;;;;;;;18.13;5.30;;;409.80;2278.40;;;;;;5091957;28;20020;-59
2021/05/01 00:57:25;;;;;;;10.90;5.00;;;409.70;2304.00;;;;;;5091580;28;20036;-61
2021/05/01 00:59:51;;;;;;;14.38;5.45;;;409.80;2278.40;;;;;;5092517;28;20078;-60
2021/05/01 01:02:21;;;;;;;9.23;5.18;;;409.90;2201.60;;;;;;5092041;28;20028;-60
2021/05/01 01:04:47;;;;;;;17.13;5.45;;;410.10;2150.40;;;;;;5071862;28;20076;-59
2021/05/01 01:07:12;;;;;;;7.80;5.13;;;410.20;2124.80;;;;;;5072002;28;20064;-61
2021/05/01 01:09:38;;;;;;;14.52;7.60;;;410.30;2150.40;;;;;;5071696;28;20070;-59
2021/05/01 01:12:06;;;;;;;12.88;4.85;;;410.30;2176.00;;;;;;5071932;28;20086;-60
2021/05/01 01:14:32;;;;;;;11.88;6.28;;;410.30;2176.00;;;;;;5071943;28;20352;-59
2021/05/01 01:16:58;;;;;;;19.35;5.90;;;410.20;2227.20;;;;;;5071603;28;20517;-60
2021/05/01 01:19:24;;;;;;;10.23;5.50;;;410.20;2252.80;;;;;;5071828;28;20033;-59
2021/05/01 01:21:50;;;;;;;11.30;5.30;;;410.10;2252.80;;;;;;5071534;28;20459;-59
2021/05/01 01:24:16;;;;;;;14.40;5.43;;;410.00;2278.40;;;;;;5071297;28;20033;-60
2021/05/01 01:26:42;;;;;;;9.63;4.85;;;409.90;2252.80;;;;;;5071466;28;20473;-59
2021/05/01 01:29:12;;;;;;;15.07;5.45;;;409.90;2304.00;;;;;;5071643;28;20079;-59
2021/05/01 01:31:38;;;;;;;10.73;6.03;;;410.00;2252.80;;;;;;5071524;28;20048;-60
2021/05/01 01:34:05;;;;;;;11.15;4.85;;;410.00;2252.80;;;;;;5071572;28;20027;-59
2021/05/01 01:36:31;;;;;;;8.68;4.82;;;410.10;2252.80;;;;;;5071180;28;20024;-60
2021/05/01 01:38:56;;;;;;;12.98;5.28;;;410.10;2252.80;;;;;;5071197;28;20039;-60
2021/05/01 01:41:22;;;;;;;14.85;5.35;;;410.00;2304.00;;;;;;5071569;28;20068;-60
2021/05/01 01:43:48;;;;;;;9.15;5.57;;;409.80;2355.20;;;;;;5071076;28;20020;-60
2021/05/01 01:46:14;;;;;;;18.92;5.55;;;409.70;2355.20;;;;;;5071323;28;20024;-59
2021/05/01 01:48:40;;;;;;;12.85;4.80;;;409.70;2329.60;;;;;;5071037;28;20056;-59
2021/05/01 01:51:05;;;;;;;13.13;5.82;;;409.70;2329.60;;;;;;5071146;28;20048;-60
2021/05/01 01:53:31;;;;;;;9.90;5.18;;;409.70;2355.20;;;;;;5071170;28;20374;-60
2021/05/01 01:55:57;;;;;;;11.85;6.40;;;409.80;2304.00;;;;;;5070632;28;20032;-60
2021/05/01 01:58:23;;;;;;;15.73;6.38;;;409.80;2304.00;;;;;;5071222;28;20029;-60
2021/05/01 02:00:51;;;;;;;14.48;6.18;;;409.90;2329.60;;;;;;5070905;28;20021;-59
2021/05/01 02:03:17;;;;;;;13.75;5.38;;;409.80;2329.60;;;;;;5078819;28;20043;-60
2021/05/01 02:05:47;;;;;;;12.57;5.05;;;409.90;2304.00;;;;;;5091210;28;20036;-59
2021/05/01 02:08:13;;;;;;;9.40;5.45;;;409.80;2329.60;;;;;;5090989;28;20050;-60
2021/05/01 02:10:39;;;;;;;7.00;5.35;;;409.70;2355.20;;;;;;5090861;28;20047;-60
2021/05/01 02:13:05;;;;;;;14.63;6.43;;;384.90;2329.60;;;;;;5091132;28;20027;-59
2021/05/01 02:15:32;;;;;;;11.57;5.43;;;409.60;2355.20;;;;;;5091127;28;20382;-59
2021/05/01 02:18:00;;;;;;;17.23;6.38;;;409.70;2329.60;;;;;;5090615;28;20426;-59
2021/05/01 02:20:36;;;;;;;12.50;5.63;;;409.80;2304.00;;;;;;5090812;28;20150;-61
2021/05/01 02:23:04;;;;;;;14.98;6.13;;;410.00;2252.80;;;;;;5090771;28;20047;-61
2021/05/01 02:25:31;;;;;;;12.38;5.85;;;410.00;2176.00;;;;;;5090448;28;20028;-59
2021/05/01 02:27:56;;;;;;;15.45;6.18;;;410.10;2278.40;;;;;;5090692;28;20047;-60
2021/05/01 02:30:24;;;;;;;10.02;4.63;;;410.10;2252.80;;;;;;5090848;28;20024;-61
2021/05/01 02:32:50;;;;;;;15.68;6.13;;;410.10;2227.20;;;;;;5090551;28;20020;-60
2021/05/01 02:35:20;;;;;;;10.68;5.35;;;410.20;2201.60;;;;;;5090506;28;20031;-59
2021/05/01 02:37:46;;;;;;;17.45;5.97;;;410.10;2252.80;;;;;;5090372;28;20466;-60
2021/05/01 02:40:14;;;;;;;13.07;4.88;;;410.10;2252.80;;;;;;5090851;28;20118;-60
2021/05/01 02:42:40;;;;;;;10.57;5.78;;;410.10;2227.20;;;;;;5090472;28;20115;-59
2021/05/01 02:45:08;;;;;;;13.00;5.25;;;410.10;2278.40;;;;;;5090274;28;20028;-60
2021/05/01 02:47:34;;;;;;;11.52;5.82;;;410.00;2304.00;;;;;;5090433;28;20036;-59
2021/05/01 02:50:00;;;;;;;12.48;5.63;;;409.90;2278.40;;;;;;5090103;28;20024;-60
2021/05/01 02:52:26;;;;;;;18.17;6.03;;;409.90;2304.00;;;;;;5090186;28;20107;-60
2021/05/01 02:54:53;;;;;;;11.65;5.55;;;409.90;2304.00;;;;;;5090227;28;20024;-59
2021/05/01 02:57:19;;;;;;;19.02;6.35;;;409.80;2304.00;;;;;;5089892;28;20036;-60
2021/05/01 02:59:44;;;;;;;11.07;5.13;;;409.70;2304.00;;;;;;5090346;28;20032;-60
2021/05/01 03:02:10;;;;;;;10.70;5.15;;;409.80;2278.40;;;;;;5090208;28;20493;-60
2021/05/01 03:04:36;;;;;;;10.18;5.70;;;409.90;2252.80;;;;;;5090244;28;20415;-60
2021/05/01 03:07:01;;;;;;;16.92;4.88;;;409.90;2252.80;;;;;;5089949;28;20526;-59
2021/05/01 03:09:27;;;;;;;10.38;5.57;;;410.00;2252.80;;;;;;5089881;28;20031;-59
2021/05/01 03:11:53;;;;;;;11.77;4.80;;;410.00;2252.80;;;;;;5090387;28;20339;-59
2021/05/01 03:14:19;;;;;;;14.90;5.22;;;410.00;2252.80;;;;;;5090056;28;20493;-59
2021/05/01 03:16:45;;;;;;;13.55;4.53;;;410.00;2252.80;;;;;;5090291;28;20032;-60
2021/05/01 03:19:11;;;;;;;20.00;7.45;;;410.00;2227.20;;;;;;5089951;28;20031;-60
2021/05/01 03:21:36;;;;;;;19.85;9.40;;;410.00;2227.20;;;;;;5093746;28;20038;-59
2021/05/01 03:24:03;;;;;;;17.60;8.80;;;410.10;2176.00;;;;;;5094133;28;20247;-60
2021/05/01 03:26:28;;;;;;;14.50;7.47;;;410.20;2201.60;;;;;;5093641;28;20369;-60
2021/05/01 03:28:54;;;;;;;13.82;7.47;;;410.10;2201.60;;;;;;5094337;28;20028;-60
2021/05/01 03:31:20;;;;;;;19.83;8.38;;;410.20;2252.80;;;;;;5094052;28;20089;-60
2021/05/01 03:33:46;;;;;;;16.55;8.45;;;410.20;2227.20;;;;;;5093893;28;20583;-60
2021/05/01 03:36:11;;;;;;;15.00;8.57;;;410.10;2227.20;;;;;;5094149;28;20031;-60
2021/05/01 03:38:37;;;;;;;15.70;7.70;;;410.10;2252.80;;;;;;5093719;28;20077;-60
2021/05/01 03:41:03;;;;;;;17.23;11.20;;;410.10;2278.40;;;;;;5093869;28;20390;-60
2021/05/01 03:43:29;;;;;;;20.85;10.65;;;410.00;2329.60;;;;;;5093608;28;20028;-61
2021/05/01 03:45:56;;;;;;;23.10;10.05;;;410.00;2304.00;;;;;;5093928;28;20028;-61
2021/05/01 03:48:22;;;;;;;17.70;9.73;;;410.00;2304.00;;;;;;5093764;28;20036;-60
2021/05/01 03:50:48;;;;;;;18.88;9.98;;;410.00;2329.60;;;;;;5093388;28;20031;-60
2021/05/01 03:53:14;;;;;;;18.85;8.73;;;410.00;2304.00;;;;;;5093716;28;20027;-61
2021/05/01 03:55:40;;;;;;;14.77;8.55;;;410.00;2329.60;;;;;;5093430;28;20030;-59
2021/05/01 03:58:06;;;;;;;14.57;8.00;;;410.00;2329.60;;;;;;5093299;28;20115;-61
2021/05/01 04:00:32;;;;;;;15.60;8.95;;;410.00;2329.60;;;;;;5093524;28;20035;-60
2021/05/01 04:02:58;;;;;;;17.13;9.25;;;409.90;2329.60;;;;;;5093154;28;20040;-60
2021/05/01 04:05:23;;;;;;;14.93;8.70;;;410.00;2278.40;;;;;;5093508;28;20017;-60
2021/05/01 04:07:50;;;;;;;14.50;7.60;;;410.10;2252.80;;;;;;5093009;28;20431;-60
2021/05/01 04:10:16;;;;;;;14.43;6.63;;;410.10;2227.20;;;;;;5093076;28;20023;-60
2021/05/01 04:12:42;;;;;;;16.70;6.32;;;410.10;2176.00;;;;;;5093390;28;20441;-60
2021/05/01 04:15:08;;;;;;;11.85;5.80;;;410.20;2176.00;;;;;;5093216;28;20099;-61
2021/05/01 04:17:34;;;;;;;16.20;6.55;;;410.30;2124.80;;;;;;5093405;28;20103;-61
2021/05/01 04:19:59;;;;;;;15.05;7.32;;;410.40;2124.80;;;;;;5092881;28;20095;-60
2021/05/01 04:22:25;;;;;;;12.65;6.82;;;410.50;2073.60;;;;;;5093133;28;20448;-60
2021/05/01 04:24:51;;;;;;;13.18;5.57;;;435.20;2073.60;;;;;;5093001;28;20065;-60
2021/05/01 04:27:18;;;;;;;13.93;6.55;;;435.30;2022.40;;;;;;5092600;28;20036;-60
2021/05/01 04:29:44;;;;;;;18.77;5.82;;;435.40;1971.20;;;;;;5092940;28;20619;-60
2021/05/01 04:32:10;;;;;;;19.75;5.78;;;435.60;1945.60;;;;;;5091523;28;20028;-59
2021/05/01 04:34:36;;;;;;;12.00;5.63;;;435.60;1971.20;;;;;;5092883;28;20070;-60
2021/05/01 04:37:01;;;;;;;19.30;6.43;;;435.60;2099.20;;;;;;5092838;28;20037;-60
2021/05/01 04:39:27;;;;;;;10.65;5.72;;;435.50;2124.80;;;;;;5092492;28;20047;-60
2021/05/01 04:41:54;;;;;;;15.77;6.82;;;435.50;2048.00;;;;;;5092599;28;20032;-60
2021/05/01 04:44:21;;;;;;;17.88;6.43;;;435.50;2022.40;;;;;;5092375;28;20020;-61
2021/05/01 04:46:53;;;;;;;12.55;6.13;;;435.60;2048.00;;;;;;5092390;28;20036;-61
2021/05/01 04:49:19;;;;;;;15.50;6.72;;;435.60;2048.00;;;;;;5092499;28;20020;-60
2021/05/01 04:51:45;;;;;;;12.73;6.25;;;435.70;2022.40;;;;;;5092608;28;20129;-61
2021/05/01 04:54:11;;;;;;;14.07;6.05;;;435.80;2073.60;;;;;;5092676;28;20506;-61
2021/05/01 04:56:38;;;;;;;16.33;6.57;;;435.90;2073.60;;;;;;5092093;28;20485;-61
2021/05/01 04:59:04;;;;;;;21.25;6.30;;;436.10;2022.40;;;;;;5074059;28;20115;-60
2021/05/01 05:01:30;;;;;;;17.58;5.85;;;436.10;1971.20;;;;;;5092109;28;20017;-60
2021/05/01 05:03:56;;;;;;;13.82;5.35;;;436.10;1996.80;;;;;;5092032;28;20611;-60
2021/05/01 05:06:22;;;;;;;18.98;6.65;;;436.10;2022.40;;;;;;5092108;28;20063;-60
2021/05/01 05:08:47;;;;;;;16.95;6.90;;;460.80;2022.40;;;;;;5091826;28;20063;-60
2021/05/01 05:11:13;;;;;;;18.58;11.95;;;460.90;2022.40;;;;;;5091976;28;20016;-60
2021/05/01 05:13:39;;;;;;;16.75;7.85;;;461.10;1945.60;;;;;;5092063;28;20462;-60
2021/05/01 05:16:05;;;;;;;18.00;7.43;;;461.20;1945.60;;;;;;5091957;28;20463;-60
2021/05/01 05:18:31;;;;;;;16.48;6.95;;;461.20;1868.80;;;;;;5091817;28;20035;-60
2021/05/01 05:20:58;;;;;;;22.80;12.85;;;461.20;1920.00;;;;;;5091670;28;20028;-60
2021/05/01 05:23:24;;;;;;;30.75;16.20;;;461.00;2073.60;;;;;;5091918;28;20031;-59
2021/05/01 05:25:50;;;;;;;25.33;17.98;;;460.80;2073.60;;;;;;5091452;28;20024;-61
2021/05/01 05:28:16;;;;;;;19.48;14.45;;;436.10;2022.40;;;;;;5091750;28;20407;-61
2021/05/01 05:30:41;;;;;;;28.13;19.70;;;460.80;2048.00;;;;;;5091916;28;20459;-60
2021/05/01 05:33:07;;;;;;;31.63;24.95;;;460.80;2022.40;;;;;;5091416;28;20034;-61
2021/05/01 05:35:33;;;;;;;30.65;22.30;;;461.20;2099.20;;;;;;5091633;28;20031;-60
2021/05/01 05:38:01;;;;;;;27.23;18.42;;;461.20;2099.20;;;;;;5091449;28;20024;-60
2021/05/01 05:40:27;;;;;;;38.13;25.80;;;461.40;2099.20;;;;;;5091211;28;20055;-61
2021/05/01 05:42:53;;;;;;;34.47;20.83;;;461.50;2073.60;;;;;;5091150;28;20496;-60
2021/05/01 05:45:26;;;;;;;44.83;28.92;;;461.50;1996.80;;;;;;5091217;28;20115;-61
2021/05/01 05:47:52;;;;;;;41.88;22.63;;;461.50;1996.80;;;;;;5091320;28;20039;-61
2021/05/01 05:50:18;;;;;;;36.85;23.45;;;461.70;1996.80;;;;;;5091260;28;20473;-61
2021/05/01 05:52:44;;;;;;;31.85;20.35;;;461.70;2073.60;;;;;;5091310;28;20027;-60
2021/05/01 05:55:11;;;;;;;29.38;19.40;;;486.40;2048.00;;;;;;5091094;28;20069;-61
2021/05/01 05:57:38;;;;;;;27.88;15.02;;;486.50;2022.40;;;;;;5091014;28;20071;-63
2021/05/01 06:00:05;;;;;;;25.35;16.58;;;486.50;1920.00;;;;;;5091260;28;20439;-61
2021/05/01 06:02:33;;;;;;;26.95;15.77;;;486.70;1945.60;;;;;;5090837;28;20462;-61
2021/05/01 06:05:06;;;;;;;29.65;16.30;;;486.80;1920.00;;;;;;5090934;28;20032;-61
2021/05/01 06:07:36;;;;;;;40.55;22.70;;;486.80;1971.20;;;;;;5091012;28;20036;-60
2021/05/01 06:10:07;;;;;;;29.98;17.85;;;486.60;2073.60;;;;;;5090838;28;20024;-62
2021/05/01 06:12:35;;;;;;;27.52;18.88;;;486.70;1920.00;;;;;;5090870;28;20436;-62
2021/05/01 06:15:13;;;;;;;34.08;24.77;;;486.90;1945.60;;;;;;5090880;28;20033;-62
2021/05/01 06:17:40;;;;;;;39.88;28.75;;;487.10;1971.20;;;;;;5090905;28;20031;-62
2021/05/01 06:20:11;;;;;;;30.10;16.13;;;487.30;1996.80;;;;;;5090801;28;20031;-62
2021/05/01 06:22:37;;;;;;;31.23;16.05;;;487.30;1894.40;;;;;;5090724;28;20111;-62
2021/05/01 06:25:06;;;;;;;25.58;17.55;;;487.10;1894.40;;;;;;5090924;28;20115;-61
2021/05/01 06:27:32;;;;;;;34.03;14.70;;;487.00;1945.60;;;;;;5090870;28;20367;-61
2021/05/01 06:29:57;;;;;;;29.85;18.15;;;487.30;1868.80;;;;;;5072099;28;20039;-61
2021/05/01 06:32:23;;;;;;;35.45;21.73;;;512.20;1843.20;;;;;;5090860;28;20028;-62
2021/05/01 06:34:54;;;;;;;28.27;21.02;;;512.60;1894.40;;;;;;5090367;28;20023;-61
2021/05/01 06:37:21;;;;;;;37.97;25.73;;;512.60;1971.20;;;;;;5090356;28;20069;-62
2021/05/01 06:39:49;;;;;;;37.05;22.33;;;512.30;1894.40;;;;;;5090558;28;20020;-63
2021/05/01 06:42:18;;;;;;;29.98;21.63;;;512.20;1920.00;;;;;;5090550;28;20024;-62
2021/05/01 06:45:09;;;;;;;32.65;24.05;;;512.30;1894.40;;;;;;5090360;28;20024;-62
2021/05/01 06:47:41;;;;;;;36.60;23.33;;;512.30;1868.80;;;;;;5090396;28;20497;-62
2021/05/01 06:50:12;;;;;;;32.35;22.33;;;512.60;1868.80;;;;;;5090259;28;20103;-62
2021/05/01 06:52:46;;;;;;;34.92;19.98;;;537.70;1868.80;;;;;;5090204;28;20028;-62
2021/05/01 06:55:18;;;;;;;38.42;19.92;;;538.10;1817.60;;;;;;5089593;28;20027;-61
2021/05/01 06:57:46;;;;;;;37.22;19.35;;;538.50;1766.40;;;;;;5090346;28;20024;-62
2021/05/01 07:00:14;;;;;;;29.30;17.95;;;563.40;1689.60;;;;;;5090221;28;20543;-62
2021/05/01 07:02:45;;;;;;;44.88;24.45;;;563.60;1740.80;;;;;;5089920;28;20091;-61
2021/05/01 07:05:24;;;;;;;54.97;30.58;;;563.90;1817.60;;;;;;5090161;28;20467;-62
2021/05/01 07:07:50;;;;;;;97.95;55.58;;;564.10;1792.00;;;;;;5089977;28;20040;-62
2021/05/01 07:10:18;;;;;;;50.38;32.25;;;588.90;1740.80;;;;;;5090041;28;20035;-61
2021/05/01 07:12:44;;;;;;;42.15;26.60;;;589.20;1766.40;;;;;;5088806;28;20101;-62
2021/05/01 07:15:12;;;;;;;36.33;25.17;;;614.50;1689.60;;;;;;5088589;28;20012;-59
2021/05/01 07:17:39;;;;;;;36.83;22.45;;;615.10;1638.40;;;;;;5089027;28;20074;-61
2021/05/01 07:20:08;;;;;;;47.70;30.88;;;640.70;1510.40;;;;;;5088962;28;20078;-62
2021/05/01 07:22:34;;;;;;;48.78;29.65;;;665.70;1459.20;;;;;;5083802;28;20024;-62
2021/05/01 07:25:06;;;;;;;49.83;31.40;;;640.00;1484.80;;;;;;5088346;28;20021;-62
2021/05/01 07:27:33;;;;;;;53.20;28.38;;;665.70;1459.20;;;;;;5088388;28;20089;-61
2021/05/01 07:30:01;;;;;;;42.28;25.35;;;666.50;1408.00;;;;;;5088830;28;20091;-60
2021/05/01 07:32:31;;;;;;;45.92;29.95;;;691.90;1331.20;;;;;;5089246;28;20032;-63
2021/05/01 07:35:01;;;;;;;40.78;26.48;;;691.80;1305.60;;;;;;5084239;28;20081;-62
2021/05/01 07:37:30;;;;;;;37.53;26.02;;;692.10;1331.20;;;;;;5089506;28;20539;-61
2021/05/01 07:39:57;;;;;;;45.10;34.42;;;717.10;1305.60;;;;;;5072043;28;20071;-61
2021/05/01 07:42:23;;;;;;;58.72;38.17;;;717.70;1254.40;;;;;;5089297;28;20054;-62
2021/05/01 07:44:53;;;;;;;42.35;31.58;;;768.00;1177.60;;;;;;5089228;28;20032;-63
2021/05/01 07:47:23;;;;;;;37.65;29.58;;;794.20;1100.80;;;;;;5072253;28;20041;-62
2021/05/01 07:49:50;;;;;;;47.88;28.98;;;794.00;1075.20;;;;;;5049585;28;20021;-63
2021/05/01 07:52:18;;;;;;;45.78;28.65;;;793.70;1126.40;;;;;;5049481;28;20036;-68
2021/05/01 07:54:44;;;;;;;49.80;31.70;;;819.40;1049.60;;;;;;5087586;28;20032;-68
2021/05/01 07:57:11;;;;;;;45.63;36.20;;;845.50;998.40;;;;;;5089579;28;20054;-68
2021/05/01 07:59:37;;;;;;;38.40;30.00;;;845.70;972.80;;;;;;5088680;28;20080;-69
2021/05/01 08:02:04;;;;;;;31.23;23.38;;;820.10;972.80;;;;;;5089591;28;20100;-67
2021/05/01 08:04:30;;;;;;;74.15;52.63;;;845.00;921.60;;;;;;5089090;28;20056;-67
2021/05/01 08:06:56;;;;;;;32.83;20.80;;;844.90;972.80;;;;;;5091801;28;20119;-67
2021/05/01 08:09:22;;;;;;;43.75;24.50;;;845.20;896.00;;;;;;5093309;28;20020;-68
2021/05/01 08:11:48;;;;;;;30.30;19.25;;;871.10;870.40;;;;;;5092952;28;20047;-68
2021/05/01 08:14:14;;;;;;;32.13;20.45;;;896.20;819.20;;;;;;5093292;28;20024;-68
2021/05/01 08:16:40;;;;;;;24.42;15.18;;;871.10;844.80;;;;;;5093125;28;20032;-68
2021/05/01 08:19:06;;;;;;;24.50;17.58;;;896.70;768.00;;;;;;5093280;28;20031;-68
2021/05/01 08:21:35;;;;;;;37.13;25.75;;;871.20;793.60;;;;;;5092925;28;20030;-68
2021/05/01 08:24:03;;;;;;;27.10;20.95;;;871.30;870.40;;;;;;5092882;28;20020;-67
2021/05/01 08:26:29;;;;;;;27.98;20.23;;;871.20;870.40;;;;;;5092523;28;20040;-67
2021/05/01 08:28:54;;;;;;;36.50;22.10;;;845.50;896.00;;;;;;5093027;28;20032;-67
2021/05/01 08:31:21;;;;;;;24.70;14.98;;;844.80;972.80;;;;;;5092714;28;20035;-68
2021/05/01 08:33:47;;;;;;;22.83;14.60;;;819.30;896.00;;;;;;5093195;28;20683;-67
2021/05/01 08:36:13;;;;;;;22.70;15.30;;;793.90;947.20;;;;;;5093098;28;20386;-67
2021/05/01 08:38:39;;;;;;;23.40;14.18;;;794.20;998.40;;;;;;5092591;28;20020;-67
2021/05/01 08:41:06;;;;;;;27.63;14.35;;;794.40;972.80;;;;;;5092576;28;20024;-68
2021/05/01 08:43:32;;;;;;;27.25;15.57;;;794.40;947.20;;;;;;5093001;28;20024;-66
2021/05/01 08:45:59;;;;;;;14.68;12.52;;;794.20;972.80;;;;;;5092467;28;20034;-67
2021/05/01 08:48:26;;;;;;;21.20;11.70;;;768.60;998.40;;;;;;5092503;28;20039;-67
2021/05/01 08:51:00;;;;;;;18.60;9.77;;;793.60;972.80;;;;;;5092719;28;20461;-67
2021/05/01 08:53:27;;;;;;;17.73;10.07;;;768.20;921.60;;;;;;5092550;28;20107;-67
2021/05/01 08:55:53;;;;;;;24.08;9.75;;;768.50;921.60;;;;;;5092138;28;20028;-68
2021/05/01 08:58:19;;;;;;;18.75;8.60;;;768.70;921.60;;;;;;5092191;28;20051;-68
2021/05/01 09:00:47;;;;;;;21.10;9.70;;;768.40;921.60;;;;;;5092510;28;20024;-68
2021/05/01 09:03:14;;;;;;;20.08;9.85;;;768.60;947.20;;;;;;5092296;28;20432;-67
2021/05/01 09:05:41;;;;;;;17.13;10.95;;;768.70;947.20;;;;;;5092127;28;20103;-67
2021/05/01 09:08:09;;;;;;;20.63;9.52;;;768.50;947.20;;;;;;5092032;28;20040;-67
2021/05/01 09:10:42;;;;;;;19.63;8.88;;;793.80;921.60;;;;;;5091988;28;20020;-67
2021/05/01 09:13:13;;;;;;;19.50;9.90;;;793.80;870.40;;;;;;5092059;28;20040;-68
2021/05/01 09:15:42;;;;;;;20.98;9.18;;;793.90;921.60;;;;;;5091893;28;20031;-68
2021/05/01 09:18:08;;;;;;;21.92;8.25;;;794.30;844.80;;;;;;5091385;28;20385;-67
2021/05/01 09:20:34;;;;;;;24.65;8.10;;;794.00;768.00;;;;;;5092189;28;20016;-67
2021/05/01 09:23:05;;;;;;;15.60;7.70;;;794.00;793.60;;;;;;5091721;28;20039;-68
2021/05/01 09:25:58;;;;;;;42.40;13.07;;;793.80;819.20;;;;;;5091488;28;20039;-68
2021/05/01 09:28:26;;;;;;;18.83;7.28;;;793.90;793.60;;;;;;4990188;28;20057;-67
2021/05/01 09:31:03;;;;;;;22.15;9.60;;;794.00;742.40;;;;;;4990432;28;20487;-67
2021/05/01 09:33:32;;;;;;;15.07;8.70;;;794.20;793.60;;;;;;4989830;28;20035;-68
2021/05/01 09:36:05;;;;;;;23.40;8.60;;;794.30;742.40;;;;;;4989972;28;20058;-68
2021/05/01 09:38:35;;;;;;;23.38;13.85;;;794.10;742.40;;;;;;4989864;28;20416;-67
2021/05/01 09:41:19;;;;;;;22.88;9.48;;;819.20;742.40;;;;;;4989862;28;20600;-67
2021/05/01 09:44:11;;;;;;;17.98;11.20;;;819.40;716.80;;;;;;4989977;28;20034;-68
2021/05/01 09:46:42;;;;;;;16.85;7.25;;;819.40;793.60;;;;;;4989831;28;20069;-68
2021/05/01 09:49:18;;;;;;;23.17;9.13;;;819.30;742.40;;;;;;4989624;28;20065;-67
2021/05/01 09:51:48;;;;;;;20.05;10.88;;;819.30;742.40;;;;;;4989779;28;20428;-68
2021/05/01 09:54:16;;;;;;;21.77;8.90;;;819.40;716.80;;;;;;4989734;28;20424;-67
2021/05/01 09:56:44;;;;;;;23.55;9.35;;;819.60;716.80;;;;;;4989659;28;20030;-67
2021/05/01 09:59:10;;;;;;;18.05;8.07;;;819.70;716.80;;;;;;4989474;28;20085;-67
2021/05/01 10:01:37;;;;;;;23.38;8.57;;;819.80;768.00;;;;;;4989685;28;20037;-67
2021/05/01 10:04:17;;;;;;;22.98;8.38;;;819.80;716.80;;;;;;4975388;28;20050;-67
2021/05/01 10:06:50;;;;;;;24.15;9.82;;;819.80;716.80;;;;;;5070834;28;20048;-68
2021/05/01 10:09:28;;;;;;;21.40;9.80;;;819.80;742.40;;;;;;5070814;28;20032;-66
2021/05/01 10:12:06;;;;;;;27.88;8.65;;;819.90;742.40;;;;;;5070698;28;20111;-67
2021/05/01 10:14:39;;;;;;;25.80;9.38;;;819.90;716.80;;;;;;5070705;28;20020;-67
2021/05/01 10:17:05;;;;;;;20.33;8.93;;;844.90;742.40;;;;;;5070669;28;20056;-67
2021/05/01 10:20:08;;;;;;;18.05;9.52;;;819.90;691.20;;;;;;5070448;28;20044;-67
2021/05/01 10:22:45;;;;;;;33.97;13.00;;;819.70;691.20;;;;;;5070732;28;20036;-66
2021/05/01 10:25:26;;;;;;;22.17;8.70;;;819.40;716.80;;;;;;5070377;28;20082;-67
2021/05/01 10:28:04;;;;;;;18.52;8.52;;;794.50;716.80;;;;;;5051925;28;20083;-67
2021/05/01 10:30:39;;;;;;;18.52;8.73;;;794.30;768.00;;;;;;5069367;28;20107;-66
2021/05/01 10:35:57;;;;;;;18.33;9.25;;;794.00;768.00;;;;;;5070484;28;20110;-67
2021/05/01 10:38:24;;;;;;;22.80;11.80;;;794.20;742.40;;;;;;5070395;28;20020;-67
2021/05/01 10:40:58;;;;;;;17.73;8.50;;;794.20;768.00;;;;;;5051652;28;20024;-67
2021/05/01 10:43:25;;;;;;;23.25;9.30;;;794.20;742.40;;;;;;5070397;28;20027;-66
2021/05/01 10:45:57;;;;;;;26.10;8.95;;;794.50;742.40;;;;;;5070023;28;20066;-67
2021/05/01 10:48:24;;;;;;;24.42;12.10;;;819.60;742.40;;;;;;5069976;28;20035;-68
2021/05/01 10:51:09;;;;;;;32.72;20.08;;;819.80;742.40;;;;;;5069703;28;20110;-65
2021/05/01 10:53:37;;;;;;;26.25;15.63;;;819.60;742.40;;;;;;5051487;28;20029;-66
2021/05/01 10:56:06;;;;;;;32.38;18.88;;;819.40;742.40;;;;;;5069866;28;20032;-67
2021/05/01 10:58:42;;;;;;;21.45;11.65;;;819.40;716.80;;;;;;5069983;28;20025;-67
2021/05/01 11:01:25;;;;;;;18.98;9.48;;;819.30;716.80;;;;;;5069686;28;20115;-68
2021/05/01 11:03:56;;;;;;;25.92;12.00;;;794.50;716.80;;;;;;5082338;28;20106;-65
2021/05/01 11:06:24;;;;;;;30.98;21.05;;;794.50;716.80;;;;;;5090192;28;20036;-66
2021/05/01 11:09:19;;;;;;;26.08;13.77;;;819.30;716.80;;;;;;5089883;28;20051;-66
2021/05/01 11:11:49;;;;;;;24.48;10.52;;;819.50;716.80;;;;;;5067979;28;20036;-66
2021/05/01 11:14:24;;;;;;;19.60;9.25;;;819.60;742.40;;;;;;5089993;28;20031;-67
2021/05/01 11:17:31;;;;;;;19.33;9.68;;;819.90;793.60;;;;;;5089845;28;20032;-67
2021/05/01 11:20:07;;;;;;;28.30;10.93;;;819.90;742.40;;;;;;5007863;28;20041;-68
2021/05/01 11:22:41;;;;;;;19.75;8.43;;;819.70;768.00;;;;;;5008226;28;20427;-65
2021/05/01 11:25:15;;;;;;;27.40;10.48;;;794.20;793.60;;;;;;5007698;28;20072;-70
2021/05/01 11:27:46;;;;;;;23.88;10.77;;;794.20;844.80;;;;;;5007882;28;20130;-69
2021/05/01 11:30:14;;;;;;;15.30;8.45;;;794.10;896.00;;;;;;5006428;28;20034;-66
2021/05/01 11:32:41;;;;;;;29.33;9.95;;;794.00;870.40;;;;;;5006448;28;20052;-61
2021/05/01 11:35:12;;;;;;;19.67;10.18;;;793.90;844.80;;;;;;5006369;28;20026;-60
2021/05/01 11:38:05;;;;;;;28.10;12.13;;;794.10;844.80;;;;;;5003818;28;20085;-57
2021/05/01 11:40:34;;;;;;;21.00;8.93;;;794.50;844.80;;;;;;4997694;28;20065;-59
2021/05/01 11:43:00;;;;;;;24.90;8.38;;;819.50;819.20;;;;;;5010958;28;20041;-58
2021/05/01 11:45:46;;;;;;;21.55;8.75;;;819.60;793.60;;;;;;5010331;28;20034;-63
2021/05/01 11:48:24;;;;;;;20.13;8.48;;;819.30;819.20;;;;;;5008610;28;20626;-63
2021/05/01 11:50:50;;;;;;;22.60;8.45;;;819.30;844.80;;;;;;5010066;28;20058;-62
2021/05/01 11:53:24;;;;;;;19.02;10.05;;;794.20;844.80;;;;;;5004893;28;21027;-62
2021/05/01 11:55:58;;;;;;;22.77;9.30;;;794.20;870.40;;;;;;5023078;28;20082;-61
2021/05/01 11:58:35;;;;;;;19.27;8.23;;;794.30;870.40;;;;;;5088978;28;20026;-63
2021/05/01 12:01:13;;;;;;;19.08;8.52;;;794.50;844.80;;;;;;5088033;28;20076;-62
2021/05/01 12:03:41;;;;;;;22.08;8.35;;;794.50;844.80;;;;;;5087253;28;20039;-64
2021/05/01 12:06:14;;;;;;;17.80;8.55;;;819.30;844.80;;;;;;5091803;28;20024;-58
2021/05/01 12:08:40;;;;;;;25.55;8.68;;;819.40;844.80;;;;;;5087430;28;20035;-58
2021/05/01 12:11:08;;;;;;;19.15;8.18;;;794.50;844.80;;;;;;5091962;28;20475;-60
2021/05/01 12:13:40;;;;;;;23.80;10.25;;;819.20;844.80;;;;;;5091814;28;20103;-58
2021/05/01 12:16:18;;;;;;;26.02;10.25;;;819.60;870.40;;;;;;5091184;28;20482;-58
2021/05/01 12:18:50;;;;;;;18.45;8.63;;;819.70;844.80;;;;;;5091730;28;20020;-58